sensor_id;sensor_type;location;lat;lon;timestamp;P1;durP1;ratioP1;P2;durP2;ratioP2
50968;SDS011;36982;51.474;7.228;2023-04-03T00:00:04;6.33;;;4.20;;
50968;SDS011;36982;51.474;7.228;2023-04-03T00:02:30;7.20;;;4.20;;
50968;SDS011;36982;51.474;7.228;2023-04-03T00:04:56;6.47;;;4.90;;
50968;SDS011;36982;51.474;7.228;2023-04-03T00:07:21;6.30;;;4.70;;
50968;SDS011;36982;51.474;7.228;2023-04-03T00:09:47;6.57;;;4.47;;
50968;SDS011;36982;51.474;7.228;2023-04-03T00:12:12;5.80;;;4.60;;
50968;SDS011;36982;51.474;7.228;2023-04-03T00:14:38;7.93;;;4.63;;
50968;SDS011;36982;51.474;7.228;2023-04-03T00:17:04;7.80;;;5.17;;
50968;SDS011;36982;51.474;7.228;2023-04-03T00:19:30;6.23;;;4.83;;
50968;SDS011;36982;51.474;7.228;2023-04-03T00:21:55;8.97;;;4.57;;
50968;SDS011;36982;51.474;7.228;2023-04-03T00:24:21;6.37;;;4.43;;
50968;SDS011;36982;51.474;7.228;2023-04-03T00:26:47;7.97;;;5.23;;
50968;SDS011;36982;51.474;7.228;2023-04-03T00:29:12;6.43;;;5.10;;
50968;SDS011;36982;51.474;7.228;2023-04-03T00:31:38;6.40;;;4.80;;
50968;SDS011;36982;51.474;7.228;2023-04-03T00:34:03;6.73;;;4.77;;
50968;SDS011;36982;51.474;7.228;2023-04-03T00:36:29;6.07;;;4.67;;
50968;SDS011;36982;51.474;7.228;2023-04-03T00:38:55;6.40;;;4.50;;
50968;SDS011;36982;51.474;7.228;2023-04-03T00:41:20;8.83;;;4.70;;
50968;SDS011;36982;51.474;7.228;2023-04-03T00:43:46;6.80;;;4.47;;
50968;SDS011;36982;51.474;7.228;2023-04-03T00:46:12;7.03;;;4.57;;
50968;SDS011;36982;51.474;7.228;2023-04-03T00:48:39;8.07;;;4.63;;
50968;SDS011;36982;51.474;7.228;2023-04-03T00:51:09;6.40;;;4.87;;
50968;SDS011;36982;51.474;7.228;2023-04-03T00:53:46;7.63;;;5.10;;
50968;SDS011;36982;51.474;7.228;2023-04-03T00:56:16;7.50;;;4.63;;
50968;SDS011;36982;51.474;7.228;2023-04-03T00:58:51;4.87;;;3.97;;
50968;SDS011;36982;51.474;7.228;2023-04-03T01:01:22;7.07;;;4.70;;
50968;SDS011;36982;51.474;7.228;2023-04-03T01:03:51;6.07;;;4.47;;
50968;SDS011;36982;51.474;7.228;2023-04-03T01:06:17;5.47;;;3.83;;
50968;SDS011;36982;51.474;7.228;2023-04-03T01:08:48;5.67;;;4.17;;
50968;SDS011;36982;51.474;7.228;2023-04-03T01:11:15;6.73;;;4.23;;
50968;SDS011;36982;51.474;7.228;2023-04-03T01:13:41;7.57;;;4.33;;
50968;SDS011;36982;51.474;7.228;2023-04-03T01:16:06;6.13;;;4.03;;
50968;SDS011;36982;51.474;7.228;2023-04-03T01:18:33;5.97;;;4.17;;
50968;SDS011;36982;51.474;7.228;2023-04-03T01:26:51;5.43;;;3.87;;
50968;SDS011;36982;51.474;7.228;2023-04-03T01:29:17;5.07;;;3.20;;
50968;SDS011;36982;51.474;7.228;2023-04-03T01:31:51;7.43;;;3.50;;
50968;SDS011;36982;51.474;7.228;2023-04-03T01:34:35;3.90;;;2.90;;
50968;SDS011;36982;51.474;7.228;2023-04-03T01:37:01;7.57;;;3.20;;
50968;SDS011;36982;51.474;7.228;2023-04-03T01:39:27;6.50;;;3.60;;
50968;SDS011;36982;51.474;7.228;2023-04-03T01:41:52;4.37;;;2.60;;
50968;SDS011;36982;51.474;7.228;2023-04-03T01:44:18;5.17;;;2.67;;
50968;SDS011;36982;51.474;7.228;2023-04-03T01:46:44;4.57;;;3.00;;
50968;SDS011;36982;51.474;7.228;2023-04-03T01:49:09;5.03;;;2.77;;
50968;SDS011;36982;51.474;7.228;2023-04-03T01:51:35;4.67;;;2.70;;
50968;SDS011;36982;51.474;7.228;2023-04-03T01:54:01;3.07;;;2.17;;
50968;SDS011;36982;51.474;7.228;2023-04-03T01:56:26;5.53;;;2.67;;
50968;SDS011;36982;51.474;7.228;2023-04-03T01:58:52;6.13;;;2.43;;
50968;SDS011;36982;51.474;7.228;2023-04-03T02:01:17;4.30;;;2.37;;
50968;SDS011;36982;51.474;7.228;2023-04-03T02:03:43;5.93;;;2.23;;
50968;SDS011;36982;51.474;7.228;2023-04-03T02:06:08;3.20;;;2.43;;
50968;SDS011;36982;51.474;7.228;2023-04-03T02:08:34;5.80;;;2.37;;
50968;SDS011;36982;51.474;7.228;2023-04-03T02:11:00;3.33;;;2.00;;
50968;SDS011;36982;51.474;7.228;2023-04-03T02:13:25;3.57;;;2.10;;
50968;SDS011;36982;51.474;7.228;2023-04-03T02:15:51;3.27;;;2.13;;
50968;SDS011;36982;51.474;7.228;2023-04-03T02:18:17;6.37;;;2.40;;
50968;SDS011;36982;51.474;7.228;2023-04-03T02:20:43;2.80;;;1.80;;
50968;SDS011;36982;51.474;7.228;2023-04-03T02:23:09;3.37;;;1.83;;
50968;SDS011;36982;51.474;7.228;2023-04-03T02:25:35;3.87;;;2.00;;
50968;SDS011;36982;51.474;7.228;2023-04-03T02:28:00;3.83;;;1.90;;
50968;SDS011;36982;51.474;7.228;2023-04-03T02:30:26;2.63;;;1.80;;
50968;SDS011;36982;51.474;7.228;2023-04-03T02:32:52;3.47;;;1.60;;
50968;SDS011;36982;51.474;7.228;2023-04-03T02:35:18;5.57;;;2.10;;
50968;SDS011;36982;51.474;7.228;2023-04-03T02:37:44;2.97;;;1.80;;
50968;SDS011;36982;51.474;7.228;2023-04-03T02:40:09;2.60;;;1.40;;
50968;SDS011;36982;51.474;7.228;2023-04-03T02:42:36;4.17;;;1.50;;
50968;SDS011;36982;51.474;7.228;2023-04-03T02:45:02;4.37;;;1.60;;
50968;SDS011;36982;51.474;7.228;2023-04-03T02:47:28;2.87;;;1.70;;
50968;SDS011;36982;51.474;7.228;2023-04-03T02:49:53;2.43;;;1.50;;
50968;SDS011;36982;51.474;7.228;2023-04-03T02:52:20;3.57;;;1.70;;
50968;SDS011;36982;51.474;7.228;2023-04-03T02:54:45;2.87;;;1.50;;
50968;SDS011;36982;51.474;7.228;2023-04-03T02:57:11;3.03;;;1.70;;
50968;SDS011;36982;51.474;7.228;2023-04-03T02:59:37;2.80;;;1.33;;
50968;SDS011;36982;51.474;7.228;2023-04-03T03:02:05;3.47;;;1.50;;
50968;SDS011;36982;51.474;7.228;2023-04-03T03:04:34;3.10;;;1.50;;
50968;SDS011;36982;51.474;7.228;2023-04-03T03:07:00;4.97;;;1.20;;
50968;SDS011;36982;51.474;7.228;2023-04-03T03:09:26;1.50;;;1.00;;
50968;SDS011;36982;51.474;7.228;2023-04-03T03:11:52;2.30;;;1.30;;
50968;SDS011;36982;51.474;7.228;2023-04-03T03:14:17;3.33;;;1.30;;
50968;SDS011;36982;51.474;7.228;2023-04-03T03:16:43;3.97;;;1.10;;
50968;SDS011;36982;51.474;7.228;2023-04-03T03:19:09;4.27;;;1.43;;
50968;SDS011;36982;51.474;7.228;2023-04-03T03:21:35;2.80;;;1.30;;
50968;SDS011;36982;51.474;7.228;2023-04-03T03:24:01;2.10;;;1.10;;
50968;SDS011;36982;51.474;7.228;2023-04-03T03:26:26;2.80;;;1.10;;
50968;SDS011;36982;51.474;7.228;2023-04-03T03:28:52;4.23;;;1.30;;
50968;SDS011;36982;51.474;7.228;2023-04-03T03:31:17;2.83;;;1.23;;
50968;SDS011;36982;51.474;7.228;2023-04-03T03:33:43;2.67;;;1.20;;
50968;SDS011;36982;51.474;7.228;2023-04-03T03:36:09;6.03;;;1.60;;
50968;SDS011;36982;51.474;7.228;2023-04-03T03:38:35;4.70;;;1.30;;
50968;SDS011;36982;51.474;7.228;2023-04-03T03:41:01;4.03;;;1.50;;
50968;SDS011;36982;51.474;7.228;2023-04-03T03:43:27;3.80;;;1.30;;
50968;SDS011;36982;51.474;7.228;2023-04-03T03:45:53;2.37;;;1.10;;
50968;SDS011;36982;51.474;7.228;2023-04-03T03:48:19;3.50;;;1.33;;
50968;SDS011;36982;51.474;7.228;2023-04-03T03:50:46;3.63;;;1.27;;
50968;SDS011;36982;51.474;7.228;2023-04-03T03:53:12;4.40;;;1.30;;
50968;SDS011;36982;51.474;7.228;2023-04-03T03:55:38;2.63;;;1.00;;
50968;SDS011;36982;51.474;7.228;2023-04-03T03:58:04;3.67;;;1.40;;
50968;SDS011;36982;51.474;7.228;2023-04-03T04:00:30;3.67;;;1.33;;
50968;SDS011;36982;51.474;7.228;2023-04-03T04:02:55;1.90;;;1.20;;
50968;SDS011;36982;51.474;7.228;2023-04-03T04:05:21;3.20;;;1.20;;
50968;SDS011;36982;51.474;7.228;2023-04-03T04:07:47;2.90;;;1.10;;
50968;SDS011;36982;51.474;7.228;2023-04-03T04:10:12;5.77;;;1.53;;
50968;SDS011;36982;51.474;7.228;2023-04-03T04:12:38;2.97;;;1.03;;
50968;SDS011;36982;51.474;7.228;2023-04-03T04:15:04;5.77;;;1.67;;
50968;SDS011;36982;51.474;7.228;2023-04-03T04:17:30;4.47;;;1.47;;
50968;SDS011;36982;51.474;7.228;2023-04-03T04:19:56;2.57;;;1.30;;
50968;SDS011;36982;51.474;7.228;2023-04-03T04:22:21;7.13;;;1.67;;
50968;SDS011;36982;51.474;7.228;2023-04-03T04:24:47;4.43;;;1.90;;
50968;SDS011;36982;51.474;7.228;2023-04-03T04:27:13;5.53;;;1.40;;
50968;SDS011;36982;51.474;7.228;2023-04-03T04:29:38;3.80;;;1.30;;
50968;SDS011;36982;51.474;7.228;2023-04-03T04:32:04;2.10;;;1.00;;
50968;SDS011;36982;51.474;7.228;2023-04-03T04:34:29;3.27;;;1.03;;
50968;SDS011;36982;51.474;7.228;2023-04-03T04:36:55;2.83;;;1.30;;
50968;SDS011;36982;51.474;7.228;2023-04-03T04:39:20;2.83;;;1.20;;
50968;SDS011;36982;51.474;7.228;2023-04-03T04:41:46;4.50;;;1.07;;
50968;SDS011;36982;51.474;7.228;2023-04-03T04:44:12;3.70;;;1.37;;
50968;SDS011;36982;51.474;7.228;2023-04-03T04:46:37;3.53;;;1.37;;
50968;SDS011;36982;51.474;7.228;2023-04-03T04:49:03;5.17;;;1.50;;
50968;SDS011;36982;51.474;7.228;2023-04-03T04:51:28;3.33;;;1.33;;
50968;SDS011;36982;51.474;7.228;2023-04-03T04:53:54;3.13;;;1.23;;
50968;SDS011;36982;51.474;7.228;2023-04-03T04:56:19;2.80;;;1.23;;
50968;SDS011;36982;51.474;7.228;2023-04-03T04:58:45;4.77;;;1.50;;
50968;SDS011;36982;51.474;7.228;2023-04-03T05:01:11;2.57;;;1.43;;
50968;SDS011;36982;51.474;7.228;2023-04-03T05:03:37;5.37;;;1.20;;
50968;SDS011;36982;51.474;7.228;2023-04-03T05:06:02;2.10;;;1.20;;
50968;SDS011;36982;51.474;7.228;2023-04-03T05:08:28;3.40;;;1.30;;
50968;SDS011;36982;51.474;7.228;2023-04-03T05:10:54;3.60;;;1.30;;
50968;SDS011;36982;51.474;7.228;2023-04-03T05:13:20;3.47;;;1.50;;
50968;SDS011;36982;51.474;7.228;2023-04-03T05:15:46;4.60;;;1.20;;
50968;SDS011;36982;51.474;7.228;2023-04-03T05:18:12;3.20;;;1.20;;
50968;SDS011;36982;51.474;7.228;2023-04-03T05:20:37;3.77;;;1.60;;
50968;SDS011;36982;51.474;7.228;2023-04-03T05:23:03;2.87;;;1.23;;
50968;SDS011;36982;51.474;7.228;2023-04-03T05:25:29;2.73;;;1.30;;
50968;SDS011;36982;51.474;7.228;2023-04-03T05:27:55;3.23;;;1.40;;
50968;SDS011;36982;51.474;7.228;2023-04-03T05:30:21;4.07;;;1.27;;
50968;SDS011;36982;51.474;7.228;2023-04-03T05:32:47;2.87;;;1.40;;
50968;SDS011;36982;51.474;7.228;2023-04-03T05:35:13;3.00;;;1.27;;
50968;SDS011;36982;51.474;7.228;2023-04-03T05:37:38;6.03;;;1.30;;
50968;SDS011;36982;51.474;7.228;2023-04-03T05:40:05;3.80;;;1.40;;
50968;SDS011;36982;51.474;7.228;2023-04-03T05:42:31;1.83;;;0.90;;
50968;SDS011;36982;51.474;7.228;2023-04-03T05:44:57;3.20;;;1.37;;
50968;SDS011;36982;51.474;7.228;2023-04-03T05:47:23;5.23;;;1.23;;
50968;SDS011;36982;51.474;7.228;2023-04-03T05:49:49;3.43;;;1.77;;
50968;SDS011;36982;51.474;7.228;2023-04-03T05:52:22;2.73;;;1.30;;
50968;SDS011;36982;51.474;7.228;2023-04-03T05:54:52;3.93;;;1.33;;
50968;SDS011;36982;51.474;7.228;2023-04-03T05:57:17;4.10;;;1.50;;
50968;SDS011;36982;51.474;7.228;2023-04-03T05:59:43;3.73;;;1.33;;
50968;SDS011;36982;51.474;7.228;2023-04-03T06:02:12;4.93;;;1.77;;
50968;SDS011;36982;51.474;7.228;2023-04-03T06:04:39;4.17;;;1.30;;
50968;SDS011;36982;51.474;7.228;2023-04-03T06:07:05;3.63;;;1.70;;
50968;SDS011;36982;51.474;7.228;2023-04-03T06:09:32;3.80;;;1.10;;
50968;SDS011;36982;51.474;7.228;2023-04-03T06:11:58;5.30;;;1.53;;
50968;SDS011;36982;51.474;7.228;2023-04-03T06:14:24;4.00;;;1.40;;
50968;SDS011;36982;51.474;7.228;2023-04-03T06:16:51;4.83;;;1.30;;
50968;SDS011;36982;51.474;7.228;2023-04-03T06:19:17;4.43;;;1.43;;
50968;SDS011;36982;51.474;7.228;2023-04-03T06:21:43;5.17;;;1.60;;
50968;SDS011;36982;51.474;7.228;2023-04-03T06:24:09;3.93;;;1.43;;
50968;SDS011;36982;51.474;7.228;2023-04-03T06:26:37;4.20;;;1.50;;
50968;SDS011;36982;51.474;7.228;2023-04-03T06:29:03;6.07;;;1.77;;
50968;SDS011;36982;51.474;7.228;2023-04-03T06:31:28;2.23;;;1.40;;
50968;SDS011;36982;51.474;7.228;2023-04-03T06:33:54;4.77;;;1.77;;
50968;SDS011;36982;51.474;7.228;2023-04-03T06:36:21;2.87;;;1.53;;
50968;SDS011;36982;51.474;7.228;2023-04-03T06:38:47;4.77;;;1.93;;
50968;SDS011;36982;51.474;7.228;2023-04-03T06:41:13;4.30;;;1.33;;
50968;SDS011;36982;51.474;7.228;2023-04-03T06:43:39;4.60;;;1.40;;
50968;SDS011;36982;51.474;7.228;2023-04-03T06:46:05;4.47;;;1.83;;
50968;SDS011;36982;51.474;7.228;2023-04-03T06:48:31;2.50;;;1.37;;
50968;SDS011;36982;51.474;7.228;2023-04-03T06:50:57;3.70;;;1.43;;
50968;SDS011;36982;51.474;7.228;2023-04-03T06:53:22;3.63;;;1.30;;
50968;SDS011;36982;51.474;7.228;2023-04-03T06:55:48;2.63;;;0.90;;
50968;SDS011;36982;51.474;7.228;2023-04-03T06:58:14;4.73;;;1.80;;
50968;SDS011;36982;51.474;7.228;2023-04-03T07:00:42;4.10;;;1.70;;
50968;SDS011;36982;51.474;7.228;2023-04-03T07:03:07;5.57;;;1.43;;
50968;SDS011;36982;51.474;7.228;2023-04-03T07:05:33;4.33;;;1.40;;
50968;SDS011;36982;51.474;7.228;2023-04-03T07:07:59;3.80;;;1.33;;
50968;SDS011;36982;51.474;7.228;2023-04-03T07:10:24;2.20;;;1.23;;
50968;SDS011;36982;51.474;7.228;2023-04-03T07:12:50;3.70;;;1.00;;
50968;SDS011;36982;51.474;7.228;2023-04-03T07:15:16;4.03;;;1.47;;
50968;SDS011;36982;51.474;7.228;2023-04-03T07:17:42;5.63;;;1.20;;
50968;SDS011;36982;51.474;7.228;2023-04-03T07:20:07;7.37;;;1.40;;
50968;SDS011;36982;51.474;7.228;2023-04-03T07:22:33;4.00;;;1.30;;
50968;SDS011;36982;51.474;7.228;2023-04-03T07:24:59;5.83;;;1.40;;
50968;SDS011;36982;51.474;7.228;2023-04-03T07:27:25;4.13;;;1.20;;
50968;SDS011;36982;51.474;7.228;2023-04-03T07:29:56;4.43;;;1.53;;
50968;SDS011;36982;51.474;7.228;2023-04-03T07:32:21;3.03;;;1.30;;
50968;SDS011;36982;51.474;7.228;2023-04-03T07:34:47;5.77;;;1.67;;
50968;SDS011;36982;51.474;7.228;2023-04-03T07:37:12;6.67;;;1.97;;
50968;SDS011;36982;51.474;7.228;2023-04-03T07:39:38;4.63;;;1.30;;
50968;SDS011;36982;51.474;7.228;2023-04-03T07:42:04;4.23;;;1.30;;
50968;SDS011;36982;51.474;7.228;2023-04-03T07:44:29;3.40;;;1.10;;
50968;SDS011;36982;51.474;7.228;2023-04-03T07:46:55;4.00;;;1.07;;
50968;SDS011;36982;51.474;7.228;2023-04-03T07:49:21;3.83;;;1.20;;
50968;SDS011;36982;51.474;7.228;2023-04-03T07:51:49;2.37;;;1.30;;
50968;SDS011;36982;51.474;7.228;2023-04-03T07:54:15;3.93;;;0.80;;
50968;SDS011;36982;51.474;7.228;2023-04-03T07:56:40;2.03;;;0.83;;
50968;SDS011;36982;51.474;7.228;2023-04-03T07:59:08;6.10;;;1.27;;
50968;SDS011;36982;51.474;7.228;2023-04-03T08:01:34;6.13;;;1.00;;
50968;SDS011;36982;51.474;7.228;2023-04-03T08:03:59;4.83;;;1.30;;
50968;SDS011;36982;51.474;7.228;2023-04-03T08:06:26;2.23;;;0.90;;
50968;SDS011;36982;51.474;7.228;2023-04-03T08:08:51;3.80;;;1.40;;
50968;SDS011;36982;51.474;7.228;2023-04-03T08:11:17;3.67;;;1.37;;
50968;SDS011;36982;51.474;7.228;2023-04-03T08:13:43;2.83;;;1.40;;
50968;SDS011;36982;51.474;7.228;2023-04-03T08:16:12;2.70;;;1.20;;
50968;SDS011;36982;51.474;7.228;2023-04-03T08:18:41;2.97;;;0.60;;
50968;SDS011;36982;51.474;7.228;2023-04-03T08:21:10;1.97;;;1.00;;
50968;SDS011;36982;51.474;7.228;2023-04-03T08:23:37;4.70;;;1.10;;
50968;SDS011;36982;51.474;7.228;2023-04-03T08:26:14;2.50;;;0.80;;
50968;SDS011;36982;51.474;7.228;2023-04-03T08:28:40;3.73;;;1.30;;
50968;SDS011;36982;51.474;7.228;2023-04-03T08:31:07;2.57;;;1.20;;
50968;SDS011;36982;51.474;7.228;2023-04-03T08:33:36;7.87;;;1.10;;
50968;SDS011;36982;51.474;7.228;2023-04-03T08:36:04;2.70;;;1.07;;
50968;SDS011;36982;51.474;7.228;2023-04-03T08:38:31;3.00;;;1.00;;
50968;SDS011;36982;51.474;7.228;2023-04-03T08:44:13;2.33;;;0.90;;
50968;SDS011;36982;51.474;7.228;2023-04-03T08:46:59;3.67;;;0.90;;
50968;SDS011;36982;51.474;7.228;2023-04-03T08:49:53;4.53;;;0.90;;
50968;SDS011;36982;51.474;7.228;2023-04-03T08:54:58;1.80;;;0.80;;
50968;SDS011;36982;51.474;7.228;2023-04-03T08:57:30;1.90;;;0.80;;
50968;SDS011;36982;51.474;7.228;2023-04-03T09:00:03;2.13;;;0.80;;
50968;SDS011;36982;51.474;7.228;2023-04-03T09:02:41;3.03;;;1.00;;
50968;SDS011;36982;51.474;7.228;2023-04-03T09:05:14;2.70;;;0.90;;
50968;SDS011;36982;51.474;7.228;2023-04-03T09:07:43;1.87;;;1.00;;
50968;SDS011;36982;51.474;7.228;2023-04-03T09:10:13;3.10;;;0.70;;
50968;SDS011;36982;51.474;7.228;2023-04-03T09:12:44;1.13;;;0.80;;
50968;SDS011;36982;51.474;7.228;2023-04-03T09:15:22;2.93;;;1.10;;
50968;SDS011;36982;51.474;7.228;2023-04-03T09:22:51;1.23;;;0.80;;
50968;SDS011;36982;51.474;7.228;2023-04-03T09:25:23;2.00;;;0.83;;
50968;SDS011;36982;51.474;7.228;2023-04-03T09:27:54;1.83;;;0.77;;
50968;SDS011;36982;51.474;7.228;2023-04-03T09:30:22;1.67;;;0.70;;
50968;SDS011;36982;51.474;7.228;2023-04-03T09:32:53;2.87;;;0.70;;
50968;SDS011;36982;51.474;7.228;2023-04-03T09:35:27;2.40;;;0.60;;
50968;SDS011;36982;51.474;7.228;2023-04-03T09:42:52;4.50;;;0.87;;
50968;SDS011;36982;51.474;7.228;2023-04-03T09:45:23;6.30;;;1.03;;
50968;SDS011;36982;51.474;7.228;2023-04-03T09:47:49;3.20;;;1.00;;
50968;SDS011;36982;51.474;7.228;2023-04-03T09:50:36;4.00;;;0.80;;
50968;SDS011;36982;51.474;7.228;2023-04-03T09:53:31;3.77;;;0.97;;
50968;SDS011;36982;51.474;7.228;2023-04-03T09:56:03;1.77;;;0.57;;
50968;SDS011;36982;51.474;7.228;2023-04-03T09:58:39;3.07;;;1.20;;
50968;SDS011;36982;51.474;7.228;2023-04-03T10:01:06;2.50;;;0.90;;
50968;SDS011;36982;51.474;7.228;2023-04-03T10:06:54;2.00;;;0.83;;
50968;SDS011;36982;51.474;7.228;2023-04-03T10:12:06;1.60;;;0.70;;
50968;SDS011;36982;51.474;7.228;2023-04-03T10:14:39;1.83;;;0.80;;
50968;SDS011;36982;51.474;7.228;2023-04-03T10:17:25;3.87;;;0.80;;
50968;SDS011;36982;51.474;7.228;2023-04-03T10:25:51;5.80;;;1.00;;
50968;SDS011;36982;51.474;7.228;2023-04-03T10:31:13;1.80;;;0.50;;
50968;SDS011;36982;51.474;7.228;2023-04-03T10:41:24;2.00;;;0.80;;
50968;SDS011;36982;51.474;7.228;2023-04-03T10:50:53;1.27;;;0.93;;
50968;SDS011;36982;51.474;7.228;2023-04-03T10:56:25;1.70;;;0.80;;
50968;SDS011;36982;51.474;7.228;2023-04-03T10:59:07;1.53;;;0.50;;
50968;SDS011;36982;51.474;7.228;2023-04-03T11:01:34;2.20;;;1.17;;
50968;SDS011;36982;51.474;7.228;2023-04-03T11:04:03;2.80;;;0.97;;
50968;SDS011;36982;51.474;7.228;2023-04-03T11:06:36;1.70;;;0.90;;
50968;SDS011;36982;51.474;7.228;2023-04-03T11:11:56;1.83;;;0.97;;
50968;SDS011;36982;51.474;7.228;2023-04-03T11:14:32;2.33;;;1.00;;
50968;SDS011;36982;51.474;7.228;2023-04-03T11:20:13;2.60;;;0.80;;
50968;SDS011;36982;51.474;7.228;2023-04-03T11:22:42;1.23;;;0.77;;
50968;SDS011;36982;51.474;7.228;2023-04-03T11:27:43;0.80;;;0.70;;
50968;SDS011;36982;51.474;7.228;2023-04-03T11:30:16;2.00;;;0.90;;
50968;SDS011;36982;51.474;7.228;2023-04-03T11:35:48;0.90;;;0.60;;
50968;SDS011;36982;51.474;7.228;2023-04-03T11:38:30;1.63;;;0.73;;
50968;SDS011;36982;51.474;7.228;2023-04-03T11:41:01;1.13;;;0.60;;
50968;SDS011;36982;51.474;7.228;2023-04-03T11:43:29;1.63;;;0.80;;
50968;SDS011;36982;51.474;7.228;2023-04-03T11:45:57;1.30;;;0.80;;
50968;SDS011;36982;51.474;7.228;2023-04-03T11:51:42;2.63;;;0.83;;
50968;SDS011;36982;51.474;7.228;2023-04-03T11:53:45;3.27;;;1.17;;
50968;SDS011;36982;51.474;7.228;2023-04-03T12:04:16;1.23;;;0.70;;
50968;SDS011;36982;51.474;7.228;2023-04-03T12:09:22;3.40;;;0.80;;
50968;SDS011;36982;51.474;7.228;2023-04-03T12:11:54;2.33;;;0.50;;
50968;SDS011;36982;51.474;7.228;2023-04-03T12:14:24;1.97;;;0.83;;
50968;SDS011;36982;51.474;7.228;2023-04-03T12:16:50;2.20;;;0.87;;
50968;SDS011;36982;51.474;7.228;2023-04-03T12:24:25;2.70;;;0.70;;
50968;SDS011;36982;51.474;7.228;2023-04-03T12:27:03;2.53;;;0.90;;
50968;SDS011;36982;51.474;7.228;2023-04-03T12:29:37;1.00;;;0.80;;
50968;SDS011;36982;51.474;7.228;2023-04-03T12:46:03;1.70;;;0.60;;
50968;SDS011;36982;51.474;7.228;2023-04-03T12:48:32;2.87;;;0.93;;
50968;SDS011;36982;51.474;7.228;2023-04-03T12:51:03;1.60;;;0.70;;
50968;SDS011;36982;51.474;7.228;2023-04-03T12:53:33;2.23;;;1.03;;
50968;SDS011;36982;51.474;7.228;2023-04-03T12:58:50;2.77;;;0.80;;
50968;SDS011;36982;51.474;7.228;2023-04-03T13:01:17;2.77;;;0.80;;
50968;SDS011;36982;51.474;7.228;2023-04-03T13:03:49;3.57;;;0.93;;
50968;SDS011;36982;51.474;7.228;2023-04-03T13:06:37;1.10;;;0.70;;
50968;SDS011;36982;51.474;7.228;2023-04-03T13:09:17;1.43;;;0.70;;
50968;SDS011;36982;51.474;7.228;2023-04-03T13:11:47;1.80;;;1.03;;
50968;SDS011;36982;51.474;7.228;2023-04-03T13:14:18;0.83;;;0.47;;
50968;SDS011;36982;51.474;7.228;2023-04-03T13:16:52;1.17;;;0.57;;
50968;SDS011;36982;51.474;7.228;2023-04-03T13:19:23;2.47;;;0.77;;
50968;SDS011;36982;51.474;7.228;2023-04-03T13:21:51;3.30;;;0.93;;
50968;SDS011;36982;51.474;7.228;2023-04-03T13:24:42;0.90;;;0.50;;
50968;SDS011;36982;51.474;7.228;2023-04-03T13:27:11;1.80;;;0.50;;
50968;SDS011;36982;51.474;7.228;2023-04-03T13:29:38;3.33;;;1.00;;
50968;SDS011;36982;51.474;7.228;2023-04-03T13:32:04;1.63;;;0.67;;
50968;SDS011;36982;51.474;7.228;2023-04-03T13:34:41;3.53;;;1.13;;
50968;SDS011;36982;51.474;7.228;2023-04-03T13:37:19;1.17;;;0.57;;
50968;SDS011;36982;51.474;7.228;2023-04-03T13:39:59;2.70;;;0.70;;
50968;SDS011;36982;51.474;7.228;2023-04-03T13:42:29;1.87;;;0.70;;
50968;SDS011;36982;51.474;7.228;2023-04-03T13:45:58;1.23;;;0.70;;
50968;SDS011;36982;51.474;7.228;2023-04-03T13:51:04;3.50;;;0.80;;
50968;SDS011;36982;51.474;7.228;2023-04-03T13:53:31;1.17;;;0.73;;
50968;SDS011;36982;51.474;7.228;2023-04-03T13:56:00;1.67;;;0.70;;
50968;SDS011;36982;51.474;7.228;2023-04-03T13:58:34;2.23;;;0.67;;
50968;SDS011;36982;51.474;7.228;2023-04-03T14:01:09;0.83;;;0.60;;
50968;SDS011;36982;51.474;7.228;2023-04-03T14:03:53;1.77;;;0.60;;
50968;SDS011;36982;51.474;7.228;2023-04-03T14:06:23;1.37;;;0.67;;
50968;SDS011;36982;51.474;7.228;2023-04-03T14:08:49;2.57;;;0.90;;
50968;SDS011;36982;51.474;7.228;2023-04-03T14:11:16;5.80;;;0.80;;
50968;SDS011;36982;51.474;7.228;2023-04-03T14:13:45;2.83;;;0.83;;
50968;SDS011;36982;51.474;7.228;2023-04-03T14:16:20;1.93;;;0.73;;
50968;SDS011;36982;51.474;7.228;2023-04-03T14:18:48;1.80;;;0.70;;
50968;SDS011;36982;51.474;7.228;2023-04-03T14:21:16;2.63;;;0.90;;
50968;SDS011;36982;51.474;7.228;2023-04-03T14:23:43;1.03;;;0.50;;
50968;SDS011;36982;51.474;7.228;2023-04-03T14:26:12;1.87;;;0.80;;
50968;SDS011;36982;51.474;7.228;2023-04-03T14:28:41;2.03;;;0.60;;
50968;SDS011;36982;51.474;7.228;2023-04-03T14:31:08;2.57;;;0.87;;
50968;SDS011;36982;51.474;7.228;2023-04-03T14:33:36;1.80;;;0.60;;
50968;SDS011;36982;51.474;7.228;2023-04-03T14:36:10;2.07;;;0.70;;
50968;SDS011;36982;51.474;7.228;2023-04-03T14:38:38;1.93;;;0.57;;
50968;SDS011;36982;51.474;7.228;2023-04-03T14:41:03;1.97;;;0.60;;
50968;SDS011;36982;51.474;7.228;2023-04-03T14:43:29;2.03;;;0.90;;
50968;SDS011;36982;51.474;7.228;2023-04-03T14:45:55;3.10;;;0.90;;
50968;SDS011;36982;51.474;7.228;2023-04-03T14:48:22;6.37;;;1.00;;
50968;SDS011;36982;51.474;7.228;2023-04-03T14:50:51;3.23;;;1.10;;
50968;SDS011;36982;51.474;7.228;2023-04-03T14:53:18;2.77;;;1.10;;
50968;SDS011;36982;51.474;7.228;2023-04-03T14:55:47;1.80;;;0.80;;
50968;SDS011;36982;51.474;7.228;2023-04-03T14:58:14;3.13;;;0.70;;
50968;SDS011;36982;51.474;7.228;2023-04-03T15:00:43;3.57;;;0.90;;
50968;SDS011;36982;51.474;7.228;2023-04-03T15:03:17;2.30;;;0.83;;
50968;SDS011;36982;51.474;7.228;2023-04-03T15:05:45;3.13;;;1.03;;
50968;SDS011;36982;51.474;7.228;2023-04-03T15:08:17;2.97;;;0.87;;
50968;SDS011;36982;51.474;7.228;2023-04-03T15:10:43;1.90;;;0.90;;
50968;SDS011;36982;51.474;7.228;2023-04-03T15:13:10;3.20;;;0.77;;
50968;SDS011;36982;51.474;7.228;2023-04-03T15:15:37;1.73;;;0.80;;
50968;SDS011;36982;51.474;7.228;2023-04-03T15:18:03;1.67;;;0.77;;
50968;SDS011;36982;51.474;7.228;2023-04-03T15:20:30;1.67;;;0.83;;
50968;SDS011;36982;51.474;7.228;2023-04-03T15:22:58;4.27;;;1.03;;
50968;SDS011;36982;51.474;7.228;2023-04-03T15:25:26;2.37;;;0.80;;
50968;SDS011;36982;51.474;7.228;2023-04-03T15:27:55;3.00;;;1.00;;
50968;SDS011;36982;51.474;7.228;2023-04-03T15:30:22;4.03;;;1.23;;
50968;SDS011;36982;51.474;7.228;2023-04-03T15:32:48;3.90;;;0.93;;
50968;SDS011;36982;51.474;7.228;2023-04-03T15:35:14;1.63;;;0.80;;
50968;SDS011;36982;51.474;7.228;2023-04-03T15:37:40;2.03;;;0.80;;
50968;SDS011;36982;51.474;7.228;2023-04-03T15:40:06;2.33;;;1.37;;
50968;SDS011;36982;51.474;7.228;2023-04-03T15:42:35;2.97;;;1.13;;
50968;SDS011;36982;51.474;7.228;2023-04-03T15:45:00;1.17;;;0.80;;
50968;SDS011;36982;51.474;7.228;2023-04-03T15:47:26;1.77;;;1.10;;
50968;SDS011;36982;51.474;7.228;2023-04-03T15:49:53;3.20;;;0.93;;
50968;SDS011;36982;51.474;7.228;2023-04-03T15:52:19;1.27;;;0.90;;
50968;SDS011;36982;51.474;7.228;2023-04-03T15:54:44;2.03;;;0.97;;
50968;SDS011;36982;51.474;7.228;2023-04-03T15:57:10;3.53;;;0.80;;
50968;SDS011;36982;51.474;7.228;2023-04-03T15:59:36;2.13;;;1.17;;
50968;SDS011;36982;51.474;7.228;2023-04-03T16:02:01;1.87;;;0.87;;
50968;SDS011;36982;51.474;7.228;2023-04-03T16:04:29;1.77;;;0.80;;
50968;SDS011;36982;51.474;7.228;2023-04-03T16:06:55;2.27;;;1.17;;
50968;SDS011;36982;51.474;7.228;2023-04-03T16:09:21;1.63;;;0.73;;
50968;SDS011;36982;51.474;7.228;2023-04-03T16:11:47;1.93;;;0.90;;
50968;SDS011;36982;51.474;7.228;2023-04-03T16:14:13;2.80;;;1.00;;
50968;SDS011;36982;51.474;7.228;2023-04-03T16:16:38;1.47;;;0.80;;
50968;SDS011;36982;51.474;7.228;2023-04-03T16:19:04;2.03;;;1.13;;
50968;SDS011;36982;51.474;7.228;2023-04-03T16:21:30;1.43;;;0.93;;
50968;SDS011;36982;51.474;7.228;2023-04-03T16:23:57;2.10;;;0.80;;
50968;SDS011;36982;51.474;7.228;2023-04-03T16:26:24;2.57;;;1.03;;
50968;SDS011;36982;51.474;7.228;2023-04-03T16:28:50;2.87;;;0.90;;
50968;SDS011;36982;51.474;7.228;2023-04-03T16:31:16;2.23;;;0.80;;
50968;SDS011;36982;51.474;7.228;2023-04-03T16:33:42;3.60;;;1.30;;
50968;SDS011;36982;51.474;7.228;2023-04-03T16:36:07;4.37;;;1.30;;